This is the latest recevied weather packets stored in our database for station/object K1AWR. If no packets are shown the sender has not sent any weather packets the latest 10 day(s).
| Time | Temp. | Humidity | Pressure | Rain* | Wind** | Luminosity | Snow |
|---|---|---|---|---|---|---|---|
| 1777304752 | 20.56° C | 35% | 1024.8 hPa | 0 mm | - | 427 W/m² | - |
| 1777304450 | 20.56° C | 36% | 1025 hPa | 0 mm | - | 437 W/m² | - |
| 1777304148 | 20° C | 38% | 1024.8 hPa | 0 mm | - | 491 W/m² | - |
| 1777303844 | 20° C | 38% | 1025 hPa | 0 mm | - | 399 W/m² | - |
| 1777303541 | 20° C | 37% | 1025 hPa | 0 mm | - | 606 W/m² | - |
| 1777303239 | 20° C | 40% | 1025 hPa | 0 mm | - | 511 W/m² | - |
| 1777302937 | 18.89° C | 39% | 1025.1 hPa | 0 mm | - | 335 W/m² | - |
| 1777302633 | 19.44° C | 39% | 1025 hPa | 0 mm | - | 381 W/m² | - |
| 1777302332 | 18.33° C | 41% | 1024.9 hPa | 0 mm | - | 552 W/m² | - |
| 1777302029 | 17.78° C | 43% | 1025 hPa | 0 mm | - | 320 W/m² | - |
| 1777301727 | 18.33° C | 41% | 1025.2 hPa | 0 mm | - | 500 W/m² | - |
| 1777301424 | 16.67° C | 45% | 1025.1 hPa | 0 mm | - | 192 W/m² | - |
| 1777301120 | 16.67° C | 44% | 1025.1 hPa | 0 mm | - | 220 W/m² | - |
| 1777300818 | 16.67° C | 44% | 1025.2 hPa | 0 mm | - | 477 W/m² | - |
| 1777300516 | 16.67° C | 44% | 1025.3 hPa | 0 mm | - | 562 W/m² | - |
| 1777300213 | 16.67° C | 45% | 1025.1 hPa | 0 mm | - | 534 W/m² | - |
| 1777299909 | 16.67° C | 46% | 1025.4 hPa | 0 mm | - | 83 W/m² | - |
| 1777299606 | 16.11° C | 45% | 1025.2 hPa | 0 mm | - | 594 W/m² | - |
| 1777299304 | 16.67° C | 44% | 1025.2 hPa | 0 mm | - | 559 W/m² | - |
| 1777299001 | 15.56° C | 48% | 1025.2 hPa | 0 mm | - | 392 W/m² | - |
| 1777298699 | 15.56° C | 45% | 1025.4 hPa | 0 mm | - | 148 W/m² | - |
| 1777298395 | 15.56° C | 48% | 1025.3 hPa | 0 mm | - | 548 W/m² | - |
| 1777298091 | 15.56° C | 47% | 1025.4 hPa | 0 mm | - | 481 W/m² | - |
| 1777297790 | 15.56° C | 50% | 1025.2 hPa | 0 mm | - | 516 W/m² | - |
| 1777297489 | 15° C | 51% | 1025.1 hPa | 0 mm | - | 501 W/m² | - |
* Rain latest hour (hover to see other rain measurements)
** Current wind speed in m/s (hover to see current wind gust speed)